Time;durP1;ratioP1;P1;durP2;ratioP2;P2;SDS_P1;SDS_P2;PMS_P1;PMS_P2;Temp;Humidity;BMP_temperature;BMP_pressure;BME280_temperature;BME280_humidity;BME280_pressure;Samples;Min_cycle;Max_cycle;Signal;HPM_P1;HPM_P2
2021/09/29 00:00:56;;;;;;;6.28;1.90;;;14.70;94.60;;;;;;5012105;28;20030;-77
2021/09/29 00:03:22;;;;;;;4.65;2.13;;;14.60;94.60;;;;;;5012277;28;20025;-77
2021/09/29 00:05:47;;;;;;;2.97;1.33;;;14.60;94.60;;;;;;5012131;28;20442;-77
2021/09/29 00:08:13;;;;;;;4.20;1.90;;;14.60;94.60;;;;;;5011230;28;20026;-77
2021/09/29 00:10:42;;;;;;;2.90;1.80;;;14.60;94.60;;;;;;5012580;28;20032;-77
2021/09/29 00:13:09;;;;;;;2.80;1.67;;;14.60;94.60;;;;;;5011240;28;20336;-77
2021/09/29 00:15:35;;;;;;;4.72;1.77;;;14.60;94.60;;;;;;5012386;28;20029;-77
2021/09/29 00:18:01;;;;;;;6.22;1.90;;;14.60;94.60;;;;;;5011811;28;20026;-76
2021/09/29 00:20:27;;;;;;;3.83;1.92;;;14.60;94.60;;;;;;5012001;28;20022;-77
2021/09/29 00:22:53;;;;;;;3.65;1.60;;;14.60;94.60;;;;;;5024212;28;20071;-77
2021/09/29 00:25:19;;;;;;;3.88;2.03;;;14.60;94.80;;;;;;5031005;28;20462;-76
2021/09/29 00:27:45;;;;;;;4.80;1.55;;;14.70;94.50;;;;;;5031374;28;20013;-77
2021/09/29 00:30:12;;;;;;;2.97;1.77;;;14.70;94.50;;;;;;5031017;28;20036;-76
2021/09/29 00:32:41;;;;;;;4.57;1.95;;;14.70;94.50;;;;;;5030883;28;20025;-77
2021/09/29 00:35:08;;;;;;;3.85;1.90;;;14.70;94.50;;;;;;5031292;28;20098;-77
2021/09/29 00:37:34;;;;;;;2.08;1.58;;;14.70;94.50;;;;;;5030590;28;20021;-77
2021/09/29 00:40:00;;;;;;;5.07;1.98;;;14.70;94.50;;;;;;5029907;28;20465;-77
2021/09/29 00:42:26;;;;;;;4.82;1.65;;;14.70;94.40;;;;;;5031600;28;20527;-77
2021/09/29 00:44:51;;;;;;;3.85;1.88;;;14.70;94.40;;;;;;5032044;28;20451;-76
2021/09/29 00:47:18;;;;;;;4.72;1.90;;;14.70;94.40;;;;;;5031953;28;20018;-77
2021/09/29 00:49:44;;;;;;;7.28;1.80;;;14.70;94.30;;;;;;5030028;28;20036;-76
2021/09/29 00:52:09;;;;;;;5.68;2.40;;;14.80;94.40;;;;;;5030521;28;20022;-76
2021/09/29 00:54:35;;;;;;;3.85;1.98;;;14.70;94.40;;;;;;5030561;28;20373;-76
2021/09/29 00:57:01;;;;;;;5.85;2.22;;;14.70;94.40;;;;;;5029861;28;20022;-77
2021/09/29 00:59:27;;;;;;;5.25;2.35;;;14.70;94.40;;;;;;5031979;28;20025;-77
2021/09/29 01:01:54;;;;;;;4.05;1.90;;;14.70;94.50;;;;;;5031020;28;20458;-77
2021/09/29 01:04:24;;;;;;;3.25;1.83;;;14.70;94.50;;;;;;5030556;28;20020;-77
2021/09/29 01:07:13;;;;;;;5.30;2.20;;;14.70;94.50;;;;;;5031027;28;20020;-77
2021/09/29 01:09:44;;;;;;;6.13;2.08;;;14.70;94.50;;;;;;5030396;28;20036;-76
2021/09/29 01:12:27;;;;;;;4.55;2.28;;;14.70;94.50;;;;;;5030407;28;20120;-77
2021/09/29 01:15:15;;;;;;;3.63;2.03;;;14.70;94.40;;;;;;5031918;28;20172;-76
2021/09/29 01:17:47;;;;;;;6.47;2.35;;;14.70;94.40;;;;;;5035112;28;20029;-77
2021/09/29 01:20:25;;;;;;;5.95;2.30;;;14.70;94.40;;;;;;5033948;28;20031;-76
2021/09/29 01:22:57;;;;;;;5.78;2.63;;;14.70;94.40;;;;;;5032996;28;20045;-76
2021/09/29 01:25:40;;;;;;;4.22;2.25;;;14.80;94.30;;;;;;5035238;28;20084;-76
2021/09/29 01:28:07;;;;;;;3.55;2.00;;;14.80;94.30;;;;;;5033092;28;20356;-77
2021/09/29 01:30:37;;;;;;;3.40;2.00;;;14.70;94.30;;;;;;5033675;28;20091;-78
2021/09/29 01:33:04;;;;;;;5.03;2.40;;;14.70;94.40;;;;;;5034350;28;20025;-78
2021/09/29 01:35:30;;;;;;;4.20;2.60;;;14.60;94.40;;;;;;5033668;28;20428;-78
2021/09/29 01:37:56;;;;;;;7.72;2.08;;;14.60;94.40;;;;;;5032705;28;20022;-75
2021/09/29 01:40:22;;;;;;;4.28;1.95;;;14.60;94.50;;;;;;5034876;28;20056;-76
2021/09/29 01:42:49;;;;;;;4.78;2.17;;;14.50;94.50;;;;;;5032918;28;20517;-77
2021/09/29 01:45:14;;;;;;;7.25;2.00;;;14.50;94.60;;;;;;5033548;28;20036;-77
2021/09/29 01:47:40;;;;;;;7.10;2.47;;;14.50;94.60;;;;;;5033602;28;20052;-77
2021/09/29 01:50:08;;;;;;;5.70;2.17;;;14.40;94.60;;;;;;5034152;28;20029;-77
2021/09/29 01:52:41;;;;;;;4.13;2.20;;;14.40;94.60;;;;;;5034693;28;20026;-77
2021/09/29 01:55:08;;;;;;;4.90;1.90;;;14.40;94.60;;;;;;5032699;28;20358;-77
2021/09/29 01:57:36;;;;;;;4.03;2.28;;;14.40;94.90;;;;;;5034447;28;20473;-77
2021/09/29 02:00:02;;;;;;;3.60;2.10;;;14.40;94.60;;;;;;5033818;28;20025;-77
2021/09/29 02:02:28;;;;;;;4.43;2.50;;;14.40;94.60;;;;;;5033965;28;20025;-77
2021/09/29 02:04:54;;;;;;;5.47;2.40;;;14.30;94.60;;;;;;5032453;28;20028;-76
2021/09/29 02:07:20;;;;;;;9.27;2.50;;;14.30;94.60;;;;;;5034320;28;20100;-76
2021/09/29 02:09:47;;;;;;;2.78;1.98;;;14.30;94.70;;;;;;5033015;28;20104;-76
2021/09/29 02:12:12;;;;;;;4.85;2.28;;;14.30;94.70;;;;;;5033668;28;20029;-76
2021/09/29 02:14:38;;;;;;;6.90;2.10;;;14.30;94.70;;;;;;5034193;28;20331;-76
2021/09/29 02:17:04;;;;;;;5.07;1.95;;;14.30;94.60;;;;;;5033294;28;20048;-76
2021/09/29 02:19:30;;;;;;;4.78;2.30;;;14.30;94.70;;;;;;5034464;28;20021;-76
2021/09/29 02:21:55;;;;;;;6.28;1.92;;;14.30;94.70;;;;;;5031482;28;20018;-76
2021/09/29 02:24:21;;;;;;;5.90;2.83;;;14.30;94.70;;;;;;5033954;28;20025;-76
2021/09/29 02:26:47;;;;;;;3.83;2.25;;;14.20;94.70;;;;;;5032926;28;20025;-76
2021/09/29 02:29:14;;;;;;;3.88;2.30;;;14.20;94.70;;;;;;5031880;28;20025;-76
2021/09/29 02:31:41;;;;;;;3.63;2.17;;;14.20;94.70;;;;;;5033872;28;20029;-76
2021/09/29 02:34:07;;;;;;;4.50;2.30;;;14.20;94.70;;;;;;5031928;28;20040;-76
2021/09/29 02:36:33;;;;;;;6.55;2.88;;;14.20;94.70;;;;;;5032506;28;20067;-76
2021/09/29 02:38:59;;;;;;;5.05;2.58;;;14.10;94.70;;;;;;5033115;28;20087;-77
2021/09/29 02:41:25;;;;;;;6.75;2.67;;;14.10;94.70;;;;;;5032231;28;20029;-77
2021/09/29 02:43:51;;;;;;;7.05;2.42;;;14.10;94.80;;;;;;5033715;28;20028;-76
2021/09/29 02:46:17;;;;;;;3.92;2.03;;;14.10;94.80;;;;;;5031772;28;20366;-76
2021/09/29 02:48:42;;;;;;;4.93;2.45;;;14.00;94.80;;;;;;5033188;28;20026;-76
2021/09/29 02:51:08;;;;;;;5.70;2.80;;;14.00;94.80;;;;;;5032768;28;20032;-75
2021/09/29 02:53:34;;;;;;;5.55;2.30;;;14.00;94.80;;;;;;5032308;28;20013;-76
2021/09/29 02:56:01;;;;;;;4.82;2.38;;;14.00;94.80;;;;;;5032882;28;20069;-77
2021/09/29 02:58:28;;;;;;;5.80;2.35;;;14.00;94.80;;;;;;5033269;28;20456;-76
2021/09/29 03:00:55;;;;;;;5.57;2.47;;;14.00;94.80;;;;;;5031347;28;20528;-76
2021/09/29 03:03:21;;;;;;;5.82;2.08;;;13.90;94.80;;;;;;5032146;28;20017;-76
2021/09/29 03:05:48;;;;;;;4.43;2.38;;;14.00;94.90;;;;;;5033392;28;20026;-76
2021/09/29 03:08:15;;;;;;;4.18;2.22;;;13.90;94.90;;;;;;5031404;28;20032;-76
2021/09/29 03:10:42;;;;;;;4.50;2.40;;;13.90;94.90;;;;;;5033170;28;20022;-76
2021/09/29 03:13:08;;;;;;;4.65;2.80;;;13.90;94.90;;;;;;5031094;28;20029;-76
2021/09/29 03:15:35;;;;;;;6.18;2.20;;;13.90;94.90;;;;;;5031762;28;20495;-76
2021/09/29 03:18:01;;;;;;;4.07;2.20;;;13.90;94.90;;;;;;5030955;28;20113;-76
2021/09/29 03:20:27;;;;;;;5.47;2.42;;;13.90;94.90;;;;;;5032875;28;20018;-76
2021/09/29 03:22:54;;;;;;;5.63;2.45;;;13.90;94.90;;;;;;5031506;28;20090;-76
2021/09/29 03:25:20;;;;;;;5.07;2.10;;;13.90;94.90;;;;;;5031765;28;20013;-76
2021/09/29 03:27:46;;;;;;;4.40;2.63;;;13.90;94.90;;;;;;5031601;28;20018;-76
2021/09/29 03:30:12;;;;;;;5.13;2.67;;;14.00;94.90;;;;;;5030613;28;20026;-76
2021/09/29 03:32:38;;;;;;;7.13;2.45;;;14.00;94.80;;;;;;5031496;28;20071;-76
2021/09/29 03:35:05;;;;;;;6.18;2.67;;;14.00;94.80;;;;;;5030797;28;20531;-77
2021/09/29 03:37:30;;;;;;;4.60;2.45;;;14.00;94.80;;;;;;5032585;28;20022;-76
2021/09/29 03:39:56;;;;;;;5.85;2.75;;;14.00;94.80;;;;;;5031567;28;20438;-76
2021/09/29 03:42:24;;;;;;;5.22;2.70;;;14.00;94.70;;;;;;5032462;28;20049;-77
2021/09/29 03:44:50;;;;;;;4.82;2.55;;;14.00;94.70;;;;;;5031282;28;20108;-77
2021/09/29 03:47:16;;;;;;;6.38;3.05;;;14.00;94.70;;;;;;5032225;28;20266;-78
2021/09/29 03:49:41;;;;;;;6.72;2.80;;;14.10;94.70;;;;;;5032183;28;20022;-77
2021/09/29 03:52:07;;;;;;;4.43;2.72;;;14.00;94.70;;;;;;5030604;28;20025;-77
2021/09/29 03:54:33;;;;;;;5.13;2.60;;;14.00;94.70;;;;;;5031156;28;20091;-78
2021/09/29 03:57:00;;;;;;;5.93;2.50;;;14.00;94.80;;;;;;5031508;28;20109;-77
2021/09/29 03:59:26;;;;;;;6.05;2.63;;;14.00;94.80;;;;;;5032036;28;20441;-78
2021/09/29 04:01:52;;;;;;;5.55;2.33;;;14.00;94.80;;;;;;5032363;28;20029;-78
2021/09/29 04:04:18;;;;;;;5.10;2.72;;;14.00;94.70;;;;;;5031954;28;20064;-78
2021/09/29 04:06:45;;;;;;;4.53;2.75;;;14.00;94.70;;;;;;5032262;28;20033;-77
2021/09/29 04:09:10;;;;;;;5.43;2.08;;;14.00;94.70;;;;;;5031691;28;20028;-77
2021/09/29 04:11:36;;;;;;;4.10;2.30;;;14.00;94.90;;;;;;5032236;28;20371;-77
2021/09/29 04:14:02;;;;;;;5.95;2.47;;;14.00;94.60;;;;;;5031648;28;20022;-77
2021/09/29 04:16:28;;;;;;;5.78;2.58;;;14.10;94.60;;;;;;5030890;28;20028;-77
2021/09/29 04:18:54;;;;;;;4.43;2.22;;;14.10;94.60;;;;;;5031914;28;20018;-77
2021/09/29 04:21:20;;;;;;;3.63;2.10;;;14.10;94.50;;;;;;5030192;28;20426;-78
2021/09/29 04:23:45;;;;;;;6.45;2.60;;;14.10;94.50;;;;;;5011859;28;20076;-78
2021/09/29 04:26:11;;;;;;;5.25;2.10;;;14.10;94.50;;;;;;5010473;28;20044;-76
2021/09/29 04:28:37;;;;;;;8.25;3.95;;;14.10;94.50;;;;;;5011021;28;20033;-77
2021/09/29 04:31:03;;;;;;;6.43;3.97;;;14.10;94.50;;;;;;5010349;28;20473;-76
2021/09/29 04:33:29;;;;;;;5.95;2.70;;;14.20;94.60;;;;;;5008075;28;20014;-77
2021/09/29 04:35:55;;;;;;;5.05;2.58;;;14.20;94.60;;;;;;5010062;28;20386;-79
2021/09/29 04:38:22;;;;;;;6.30;2.60;;;14.10;94.60;;;;;;5008176;28;20471;-79
2021/09/29 04:40:48;;;;;;;10.15;3.15;;;14.20;94.70;;;;;;5010225;28;20084;-78
2021/09/29 04:43:14;;;;;;;6.32;2.33;;;14.20;94.60;;;;;;5009769;28;20397;-79
2021/09/29 04:45:40;;;;;;;5.80;2.70;;;14.20;94.70;;;;;;5009359;28;20026;-80
2021/09/29 04:48:06;;;;;;;5.60;2.70;;;14.20;94.60;;;;;;5008328;28;20048;-78
2021/09/29 04:50:33;;;;;;;5.40;2.55;;;14.20;94.70;;;;;;5010335;28;20057;-79
2021/09/29 04:52:59;;;;;;;6.75;2.38;;;14.20;94.70;;;;;;5012354;28;20354;-78
2021/09/29 04:55:25;;;;;;;5.50;2.50;;;14.20;94.70;;;;;;5013465;28;20022;-78
2021/09/29 04:57:52;;;;;;;5.68;2.53;;;14.20;94.70;;;;;;5014705;28;20378;-76
2021/09/29 05:00:18;;;;;;;5.40;2.78;;;14.10;94.70;;;;;;5015510;28;20021;-75
2021/09/29 05:02:47;;;;;;;5.03;2.33;;;14.10;94.80;;;;;;5035355;28;20450;-75
2021/09/29 05:05:13;;;;;;;6.50;2.25;;;14.10;94.90;;;;;;5034819;28;20029;-76
2021/09/29 05:07:40;;;;;;;5.25;2.15;;;14.10;94.90;;;;;;5034043;28;20025;-76
2021/09/29 05:10:11;;;;;;;6.07;2.42;;;14.10;94.90;;;;;;5035051;28;20025;-76
2021/09/29 05:12:37;;;;;;;6.72;2.42;;;14.10;94.80;;;;;;5034309;28;20075;-76
2021/09/29 05:15:03;;;;;;;5.20;2.35;;;14.00;94.90;;;;;;5034397;28;20033;-76
2021/09/29 05:17:29;;;;;;;4.82;2.33;;;14.10;94.80;;;;;;5035562;28;20105;-75
2021/09/29 05:19:55;;;;;;;6.32;2.20;;;14.10;94.80;;;;;;5033904;28;20060;-76
2021/09/29 05:22:21;;;;;;;8.07;2.67;;;14.20;94.80;;;;;;5033223;28;20030;-76
2021/09/29 05:24:47;;;;;;;4.93;2.50;;;14.20;94.80;;;;;;5035018;28;20024;-76
2021/09/29 05:27:12;;;;;;;5.85;2.28;;;14.20;94.80;;;;;;5033117;28;20116;-76
2021/09/29 05:29:43;;;;;;;4.97;2.25;;;14.20;94.90;;;;;;5033722;28;20121;-76
2021/09/29 05:32:09;;;;;;;4.45;2.55;;;14.20;94.90;;;;;;5034184;28;20013;-77
2021/09/29 05:34:35;;;;;;;5.45;2.80;;;14.10;94.90;;;;;;5034909;28;20025;-78
2021/09/29 05:37:01;;;;;;;6.22;2.28;;;14.10;95.00;;;;;;5033638;28;20021;-78
2021/09/29 05:39:27;;;;;;;6.03;2.42;;;14.10;95.10;;;;;;5034099;28;20041;-77
2021/09/29 05:41:52;;;;;;;4.70;2.20;;;14.10;95.10;;;;;;5034876;28;20033;-75
2021/09/29 05:44:18;;;;;;;7.25;2.08;;;14.10;95.10;;;;;;5032933;28;20018;-75
2021/09/29 05:46:44;;;;;;;4.63;2.42;;;14.10;95.10;;;;;;5035092;28;20049;-76
2021/09/29 05:49:09;;;;;;;5.50;2.30;;;14.10;95.10;;;;;;5032805;28;20017;-77
2021/09/29 05:51:35;;;;;;;4.05;1.95;;;14.00;95.10;;;;;;5033589;28;20480;-78
2021/09/29 05:54:01;;;;;;;4.15;2.13;;;14.10;95.20;;;;;;5033179;28;20025;-77
2021/09/29 05:56:27;;;;;;;4.75;1.98;;;14.00;95.20;;;;;;5032580;28;20021;-76
2021/09/29 05:58:52;;;;;;;4.18;2.17;;;14.00;95.20;;;;;;5033083;28;20163;-76
2021/09/29 06:01:18;;;;;;;6.38;2.20;;;14.10;95.30;;;;;;5032277;28;20412;-77
2021/09/29 06:03:43;;;;;;;4.55;2.40;;;14.10;95.30;;;;;;5032925;28;20049;-77
2021/09/29 06:06:09;;;;;;;5.13;2.33;;;14.10;95.40;;;;;;5033256;28;20434;-76
2021/09/29 06:08:35;;;;;;;5.13;2.30;;;14.10;95.30;;;;;;5032858;28;20024;-76
2021/09/29 06:11:01;;;;;;;5.55;2.10;;;14.10;95.40;;;;;;5033824;28;20369;-76
2021/09/29 06:13:26;;;;;;;7.97;2.55;;;14.10;95.40;;;;;;5033610;28;20026;-76
2021/09/29 06:15:52;;;;;;;3.53;1.90;;;14.10;95.40;;;;;;5032844;28;20028;-76
2021/09/29 06:18:19;;;;;;;6.00;2.22;;;14.10;95.50;;;;;;5032167;28;20021;-77
2021/09/29 06:20:48;;;;;;;5.28;2.30;;;14.20;95.50;;;;;;5032611;28;20031;-78
2021/09/29 06:23:16;;;;;;;4.68;2.20;;;14.20;95.50;;;;;;5032069;28;20048;-76
2021/09/29 06:25:42;;;;;;;4.20;1.83;;;14.20;95.50;;;;;;5032768;28;20018;-77
2021/09/29 06:28:08;;;;;;;5.45;2.13;;;14.20;95.50;;;;;;5033644;28;20104;-76
2021/09/29 06:30:34;;;;;;;4.03;2.20;;;14.10;95.40;;;;;;5033569;28;20122;-76
2021/09/29 06:33:00;;;;;;;5.75;2.20;;;14.20;95.50;;;;;;5033605;28;20017;-76
2021/09/29 06:35:29;;;;;;;3.42;2.50;;;14.20;95.60;;;;;;5031785;28;20362;-78
2021/09/29 06:37:55;;;;;;;3.35;1.48;;;14.10;95.60;;;;;;5033833;28;20021;-76
2021/09/29 06:40:21;;;;;;;4.90;1.80;;;14.10;95.60;;;;;;5032717;28;20180;-77
2021/09/29 06:42:47;;;;;;;3.10;1.95;;;14.20;95.70;;;;;;5033617;28;20108;-76
2021/09/29 06:45:14;;;;;;;3.08;1.90;;;14.20;95.70;;;;;;5032653;28;20021;-76
2021/09/29 06:47:40;;;;;;;4.47;2.25;;;14.20;95.70;;;;;;5031967;28;20095;-76
2021/09/29 06:50:10;;;;;;;4.25;1.98;;;14.20;95.70;;;;;;5033420;28;20010;-76
2021/09/29 06:52:37;;;;;;;4.05;1.90;;;14.10;95.70;;;;;;5032146;28;20022;-77
2021/09/29 06:55:04;;;;;;;4.10;1.75;;;14.10;95.70;;;;;;5032013;28;20024;-76
2021/09/29 06:57:30;;;;;;;5.68;2.25;;;14.10;95.80;;;;;;5032405;28;20025;-76
2021/09/29 06:59:56;;;;;;;5.85;1.98;;;14.20;95.80;;;;;;5031924;28;20048;-76
2021/09/29 07:02:21;;;;;;;4.25;2.40;;;14.20;95.90;;;;;;5032570;28;20033;-77
2021/09/29 07:04:47;;;;;;;5.30;2.10;;;14.20;95.90;;;;;;5032910;28;20104;-77
2021/09/29 07:07:13;;;;;;;3.38;1.75;;;14.20;95.90;;;;;;5032547;28;20029;-76
2021/09/29 07:09:39;;;;;;;4.32;2.13;;;14.30;96.20;;;;;;5031599;28;20029;-77
2021/09/29 07:12:06;;;;;;;5.38;2.10;;;14.20;96.00;;;;;;5031691;28;20356;-77
2021/09/29 07:14:32;;;;;;;3.58;1.90;;;14.30;96.00;;;;;;5030894;28;20020;-78
2021/09/29 07:16:58;;;;;;;4.60;2.50;;;14.30;96.00;;;;;;5031773;28;20018;-77
2021/09/29 07:19:24;;;;;;;4.18;2.00;;;14.30;96.00;;;;;;5031070;28;20034;-77
2021/09/29 07:21:49;;;;;;;3.47;2.15;;;14.30;96.10;;;;;;5032988;28;20139;-77
2021/09/29 07:24:15;;;;;;;4.25;2.00;;;14.30;96.10;;;;;;5030945;28;20014;-77
2021/09/29 07:26:41;;;;;;;6.47;2.40;;;14.30;96.10;;;;;;5031508;28;20461;-77
2021/09/29 07:29:07;;;;;;;3.58;1.95;;;14.30;96.10;;;;;;5031390;28;20020;-77
2021/09/29 07:31:33;;;;;;;6.38;2.08;;;14.30;96.10;;;;;;5031997;28;20025;-77
2021/09/29 07:33:59;;;;;;;3.85;1.77;;;14.30;96.20;;;;;;5032612;28;20022;-78
2021/09/29 07:36:25;;;;;;;5.30;2.05;;;14.20;96.20;;;;;;5031943;28;20044;-76
2021/09/29 07:38:50;;;;;;;4.03;1.88;;;14.20;96.20;;;;;;5032067;28;20053;-77
2021/09/29 07:41:16;;;;;;;5.75;2.13;;;14.10;96.20;;;;;;5031958;28;20033;-77
2021/09/29 07:43:42;;;;;;;3.42;2.05;;;14.10;96.30;;;;;;5032494;28;20018;-78
2021/09/29 07:46:07;;;;;;;7.60;2.10;;;14.10;96.30;;;;;;5032423;28;20099;-76
2021/09/29 07:48:33;;;;;;;3.60;1.70;;;14.10;96.30;;;;;;5031575;28;20095;-76
2021/09/29 07:51:01;;;;;;;3.67;1.77;;;14.10;96.40;;;;;;5031044;28;20021;-77
2021/09/29 07:53:27;;;;;;;4.70;1.63;;;14.10;96.40;;;;;;5030778;28;20397;-78
2021/09/29 07:55:53;;;;;;;3.53;1.77;;;14.10;96.40;;;;;;5033064;28;20017;-77
2021/09/29 07:58:24;;;;;;;3.65;1.80;;;14.10;96.50;;;;;;5031598;28;20044;-78
2021/09/29 08:00:50;;;;;;;2.97;1.55;;;14.10;96.50;;;;;;5032255;28;20068;-78
2021/09/29 08:03:16;;;;;;;4.28;2.00;;;14.10;96.60;;;;;;5032872;28;20026;-79
2021/09/29 08:05:42;;;;;;;4.68;2.15;;;14.00;96.70;;;;;;5032343;28;20014;-79
2021/09/29 08:08:07;;;;;;;1.63;1.45;;;14.00;96.80;;;;;;5031927;28;20450;-78
2021/09/29 08:10:33;;;;;;;3.58;1.85;;;14.00;96.80;;;;;;5031209;28;20021;-78
2021/09/29 08:12:59;;;;;;;4.97;2.20;;;14.00;96.80;;;;;;5031827;28;20025;-79
2021/09/29 08:15:25;;;;;;;3.92;1.77;;;14.00;96.90;;;;;;5032540;28;20052;-79
2021/09/29 08:17:55;;;;;;;2.65;1.60;;;14.10;97.00;;;;;;5031480;28;20018;-79
2021/09/29 08:20:21;;;;;;;3.13;1.90;;;14.10;96.90;;;;;;5032282;28;20052;-78
2021/09/29 08:22:54;;;;;;;4.45;2.10;;;14.10;96.90;;;;;;5031477;28;20526;-78
2021/09/29 08:26:04;;;;;;;6.20;2.53;;;14.10;96.90;;;;;;5033927;28;20017;-79
2021/09/29 08:28:12;;;;;;;5.93;2.50;;;14.20;96.90;;;;;;5036656;28;20026;-78
2021/09/29 08:33:18;;;;;;;4.05;2.05;;;14.20;96.90;;;;;;5037043;28;20457;-78
2021/09/29 08:38:42;;;;;;;3.25;2.08;;;14.20;97.00;;;;;;5036074;28;20029;-78
2021/09/29 08:44:03;;;;;;;4.55;2.45;;;14.00;97.40;;;;;;5036261;28;20437;-78
2021/09/29 08:49:05;;;;;;;4.63;2.45;;;13.90;97.60;;;;;;5036425;28;20065;-77
2021/09/29 09:16:09;;;;;;;4.82;2.83;;;13.80;98.00;;;;;;5034688;28;20060;-76
2021/09/29 09:18:45;;;;;;;5.95;2.70;;;13.80;98.10;;;;;;5033601;28;20022;-77
2021/09/29 09:21:15;;;;;;;5.93;3.53;;;13.90;98.10;;;;;;5035179;28;20029;-75
2021/09/29 09:23:42;;;;;;;6.20;2.95;;;13.80;98.10;;;;;;5033353;28;20453;-76
2021/09/29 09:26:23;;;;;;;6.18;3.53;;;13.80;98.40;;;;;;5033482;28;20021;-77
2021/09/29 09:28:50;;;;;;;5.55;3.28;;;13.80;98.20;;;;;;5034882;28;20373;-76
2021/09/29 09:31:21;;;;;;;7.88;3.53;;;13.80;98.20;;;;;;5035682;28;20021;-78
2021/09/29 09:33:54;;;;;;;5.83;3.40;;;13.80;98.20;;;;;;5035395;28;20067;-77
2021/09/29 09:36:37;;;;;;;4.88;2.90;;;13.80;98.20;;;;;;5034243;28;20026;-76
2021/09/29 09:39:10;;;;;;;5.95;3.03;;;13.70;98.10;;;;;;5034647;28;20068;-76
2021/09/29 09:41:37;;;;;;;8.07;3.83;;;13.70;98.20;;;;;;5032865;28;20116;-77
2021/09/29 09:44:05;;;;;;;6.38;3.90;;;13.70;98.10;;;;;;5034862;28;20014;-78
2021/09/29 09:46:32;;;;;;;7.28;3.90;;;13.60;98.20;;;;;;5033348;28;20013;-78
2021/09/29 09:49:07;;;;;;;7.25;3.22;;;13.50;98.30;;;;;;5033760;28;20113;-78
2021/09/29 09:51:46;;;;;;;5.90;3.55;;;13.40;98.30;;;;;;5033006;28;20026;-78
2021/09/29 09:54:11;;;;;;;5.50;3.80;;;13.30;98.50;;;;;;5033522;28;20017;-76
2021/09/29 09:56:42;;;;;;;6.57;3.70;;;13.10;98.70;;;;;;5032881;28;20014;-77
2021/09/29 09:59:08;;;;;;;6.20;4.10;;;13.20;98.80;;;;;;5033312;28;20112;-77
2021/09/29 10:01:34;;;;;;;6.65;4.22;;;13.10;98.90;;;;;;5032501;28;20029;-77
2021/09/29 10:04:09;;;;;;;6.10;3.90;;;13.10;98.90;;;;;;5033388;28;20017;-77
2021/09/29 10:06:35;;;;;;;7.50;4.18;;;13.00;99.00;;;;;;5033849;28;20020;-76
2021/09/29 10:09:09;;;;;;;4.50;3.05;;;12.90;99.10;;;;;;5033515;28;20025;-77
2021/09/29 10:14:34;;;;;;;5.25;3.45;;;13.00;99.20;;;;;;5034287;28;20060;-76
2021/09/29 10:22:56;;;;;;;5.70;2.80;;;12.70;99.50;;;;;;5033973;28;20044;-78
2021/09/29 10:28:12;;;;;;;5.57;2.70;;;12.70;99.50;;;;;;5033994;28;20540;-77
2021/09/29 10:30:51;;;;;;;4.60;2.75;;;12.70;99.70;;;;;;5032039;28;20041;-83
2021/09/29 10:33:26;;;;;;;6.20;3.05;;;12.80;99.70;;;;;;5032878;28;20029;-77
2021/09/29 10:36:10;;;;;;;3.60;2.50;;;12.70;99.80;;;;;;5033267;28;20136;-78
2021/09/29 10:41:26;;;;;;;4.03;2.35;;;12.80;99.90;;;;;;5034268;28;20072;-77
2021/09/29 10:52:09;;;;;;;3.47;2.05;;;12.70;99.90;;;;;;5033085;28;20040;-77
2021/09/29 11:30:32;;;;;;;0.20;0.20;;;12.40;99.90;;;;;;5033064;28;20052;-77
2021/09/29 11:38:19;;;;;;;0.10;0.10;;;12.40;99.90;;;;;;5033865;28;20089;-76
2021/09/29 12:08:46;;;;;;;0.20;0.20;;;12.60;99.90;;;;;;5034576;28;20083;-76
2021/09/29 12:11:24;;;;;;;0.20;0.20;;;12.60;99.90;;;;;;5032987;28;20022;-76
2021/09/29 12:13:57;;;;;;;0.20;0.20;;;12.70;99.90;;;;;;5031892;28;20029;-77
2021/09/29 12:16:27;;;;;;;0.10;0.10;;;12.80;99.90;;;;;;5031644;28;20018;-77
2021/09/29 12:19:01;;;;;;;0.10;0.10;;;12.90;99.90;;;;;;5032706;28;20031;-76
2021/09/29 12:21:53;;;;;;;0.20;0.20;;;13.10;99.90;;;;;;5032116;28;20021;-76
2021/09/29 12:24:31;;;;;;;0.20;0.20;;;13.20;99.90;;;;;;5031607;28;20021;-77
2021/09/29 12:26:59;;;;;;;0.10;0.10;;;13.30;99.90;;;;;;5030796;28;20428;-76
2021/09/29 12:29:37;;;;;;;0.30;0.10;;;13.30;99.90;;;;;;5033614;28;20014;-76
2021/09/29 12:37:40;;;;;;;0.10;0.10;;;13.40;99.90;;;;;;5032137;28;20084;-77
2021/09/29 12:40:07;;;;;;;0.10;0.10;;;13.40;99.90;;;;;;5031027;28;20045;-76
2021/09/29 12:42:35;;;;;;;0.10;0.10;;;13.30;99.90;;;;;;5031007;28;20081;-77
2021/09/29 12:45:01;;;;;;;0.10;0.10;;;13.30;99.90;;;;;;5032195;28;20084;-77
2021/09/29 12:49:59;;;;;;;0.10;0.10;;;13.20;99.90;;;;;;5032531;28;20353;-77
2021/09/29 12:52:30;;;;;;;0.20;0.20;;;13.20;99.90;;;;;;5031965;28;20022;-76
2021/09/29 12:54:57;;;;;;;0.10;0.10;;;13.10;99.90;;;;;;5031120;28;20052;-76
2021/09/29 12:57:27;;;;;;;0.10;0.10;;;13.00;99.90;;;;;;5031667;28;20021;-76
2021/09/29 12:59:53;;;;;;;0.10;0.10;;;13.00;99.90;;;;;;5031011;28;20438;-76
2021/09/29 13:02:18;;;;;;;0.15;0.15;;;12.80;99.90;;;;;;5031553;28;20092;-76
2021/09/29 13:04:44;;;;;;;0.10;0.10;;;12.60;99.90;;;;;;5030724;28;20049;-76
2021/09/29 13:07:10;;;;;;;0.20;0.20;;;12.50;99.90;;;;;;5030249;28;20139;-75
2021/09/29 13:09:35;;;;;;;0.17;0.17;;;12.50;99.90;;;;;;5031040;28;20395;-77
2021/09/29 13:12:01;;;;;;;0.13;0.13;;;12.50;99.90;;;;;;5034002;28;20449;-76
2021/09/29 13:14:27;;;;;;;0.20;0.20;;;12.60;99.90;;;;;;5035247;28;20021;-76
2021/09/29 13:16:52;;;;;;;0.10;0.10;;;12.60;99.90;;;;;;5033254;28;20056;-75
2021/09/29 13:19:31;;;;;;;0.20;0.20;;;12.70;99.90;;;;;;5035227;28;20104;-76
2021/09/29 13:22:03;;;;;;;0.10;0.10;;;12.70;99.90;;;;;;5033139;28;20029;-76
2021/09/29 13:35:13;;;;;;;0.10;0.10;;;13.30;99.90;;;;;;5035817;28;20037;-77
2021/09/29 13:36:33;;;;;;;0.10;0.10;;;13.40;99.90;;;;;;5034491;28;20029;-75
2021/09/29 13:38:15;;;;;;;0.13;0.13;;;13.50;99.90;;;;;;5034738;28;20029;-76
2021/09/29 13:40:43;;;;;;;0.10;0.10;;;13.60;99.90;;;;;;5033806;28;20110;-77
2021/09/29 13:43:09;;;;;;;0.20;0.20;;;13.60;99.90;;;;;;5033367;28;20033;-77
2021/09/29 13:45:35;;;;;;;0.10;0.10;;;13.70;99.90;;;;;;5033300;28;20516;-77
2021/09/29 13:48:02;;;;;;;0.13;0.13;;;13.70;99.90;;;;;;5034023;28;20022;-77
2021/09/29 13:50:28;;;;;;;0.10;0.10;;;13.70;99.90;;;;;;5033178;28;20014;-77
2021/09/29 13:52:53;;;;;;;0.20;0.20;;;13.70;99.90;;;;;;5033940;28;20056;-77
2021/09/29 13:55:22;;;;;;;0.10;0.10;;;13.70;99.90;;;;;;5034455;28;20106;-78
2021/09/29 13:58:07;;;;;;;0.10;0.10;;;13.70;99.90;;;;;;5033854;28;20017;-77
2021/09/29 14:03:34;;;;;;;0.10;0.10;;;13.60;99.90;;;;;;5034460;28;20559;-78
2021/09/29 14:14:24;;;;;;;0.20;0.20;;;13.60;99.90;;;;;;5033784;28;20044;-78
2021/09/29 14:30:46;;;;;;;0.13;0.13;;;14.50;99.90;;;;;;5033291;28;20247;-76
2021/09/29 14:33:38;;;;;;;0.10;0.10;;;14.50;99.90;;;;;;5032470;28;20032;-79
2021/09/29 14:35:58;;;;;;;0.10;0.10;;;14.60;99.90;;;;;;5032903;28;20476;-79
2021/09/29 14:38:24;;;;;;;0.20;0.20;;;14.60;99.90;;;;;;5033413;28;20021;-77
2021/09/29 14:40:50;;;;;;;0.20;0.20;;;14.50;99.90;;;;;;5032709;28;20041;-77
2021/09/29 14:43:17;;;;;;;0.10;0.10;;;14.50;99.90;;;;;;5032564;28;20070;-78
2021/09/29 14:45:44;;;;;;;0.20;0.20;;;14.60;99.90;;;;;;5031279;28;20032;-78
2021/09/29 14:48:10;;;;;;;0.20;0.20;;;14.60;99.90;;;;;;5033473;28;20101;-79
2021/09/29 14:50:37;;;;;;;0.45;0.10;;;14.60;99.70;;;;;;5033332;28;20064;-79
2021/09/29 14:53:02;;;;;;;0.10;0.10;;;14.40;99.80;;;;;;5031499;28;20029;-79
2021/09/29 14:55:32;;;;;;;0.10;0.10;;;14.00;99.70;;;;;;5032093;28;20017;-79
2021/09/29 14:57:57;;;;;;;0.20;0.20;;;13.60;99.90;;;;;;5031295;28;20458;-78
2021/09/29 15:00:28;;;;;;;0.10;0.10;;;13.40;99.90;;;;;;5031983;28;20112;-79
2021/09/29 15:02:54;;;;;;;0.10;0.10;;;13.30;99.90;;;;;;5032764;28;20056;-78
2021/09/29 15:05:19;;;;;;;0.10;0.10;;;13.30;99.90;;;;;;5032798;28;20053;-79
2021/09/29 15:07:45;;;;;;;0.10;0.10;;;13.20;99.90;;;;;;5032875;28;20056;-78
2021/09/29 15:10:11;;;;;;;0.10;0.10;;;13.00;99.90;;;;;;5033688;28;20092;-79
2021/09/29 15:12:36;;;;;;;0.20;0.20;;;12.70;99.90;;;;;;5033990;28;20533;-78
2021/09/29 15:17:42;;;;;;;0.20;0.20;;;12.30;99.90;;;;;;5033185;28;20048;-78
2021/09/29 15:20:26;;;;;;;0.10;0.10;;;12.40;99.90;;;;;;5032603;28;20014;-79
2021/09/29 15:47:21;;;;;;;0.22;0.20;;;12.00;99.90;;;;;;5031968;28;20132;-77
2021/09/29 15:55:09;;;;;;;0.20;0.20;;;11.70;99.90;;;;;;5032067;28;20369;-77
2021/09/29 15:58:00;;;;;;;0.20;0.20;;;11.70;99.90;;;;;;5031209;28;20029;-78
2021/09/29 16:06:13;;;;;;;0.20;0.20;;;11.50;99.90;;;;;;5035383;28;20029;-78
2021/09/29 16:32:27;;;;;;;0.20;0.20;;;11.00;99.90;;;;;;5016054;28;20043;-76
2021/09/29 16:35:04;;;;;;;0.10;0.10;;;11.00;99.90;;;;;;5017747;28;20078;-80
2021/09/29 16:37:31;;;;;;;0.20;0.20;;;11.00;99.90;;;;;;5017708;28;20033;-78
2021/09/29 16:39:57;;;;;;;0.10;0.10;;;11.10;99.90;;;;;;5037532;28;20041;-77
2021/09/29 16:42:23;;;;;;;0.20;0.20;;;11.10;99.90;;;;;;5030054;28;20068;-77